sensor_id;sensor_type;location;lat;lon;timestamp;P1;durP1;ratioP1;P2;durP2;ratioP2
4601;SDS011;2313;48.552;9.370;2023-03-01T00:01:22;22.35;;;13.88;;
4601;SDS011;2313;48.552;9.370;2023-03-01T00:03:50;23.02;;;12.85;;
4601;SDS011;2313;48.552;9.370;2023-03-01T00:06:16;22.23;;;13.63;;
4601;SDS011;2313;48.552;9.370;2023-03-01T00:08:42;23.80;;;14.23;;
4601;SDS011;2313;48.552;9.370;2023-03-01T00:13:40;22.25;;;14.00;;
4601;SDS011;2313;48.552;9.370;2023-03-01T00:16:07;20.42;;;12.80;;
4601;SDS011;2313;48.552;9.370;2023-03-01T00:18:34;20.48;;;13.02;;
4601;SDS011;2313;48.552;9.370;2023-03-01T00:21:00;24.03;;;13.37;;
4601;SDS011;2313;48.552;9.370;2023-03-01T00:23:26;23.20;;;12.75;;
4601;SDS011;2313;48.552;9.370;2023-03-01T00:25:53;21.45;;;13.13;;
4601;SDS011;2313;48.552;9.370;2023-03-01T00:28:19;26.05;;;15.10;;
4601;SDS011;2313;48.552;9.370;2023-03-01T00:30:45;32.90;;;18.83;;
4601;SDS011;2313;48.552;9.370;2023-03-01T00:33:11;36.37;;;20.40;;
4601;SDS011;2313;48.552;9.370;2023-03-01T00:35:36;23.73;;;14.77;;
4601;SDS011;2313;48.552;9.370;2023-03-01T00:38:03;23.60;;;13.50;;
4601;SDS011;2313;48.552;9.370;2023-03-01T00:40:29;21.55;;;13.23;;
4601;SDS011;2313;48.552;9.370;2023-03-01T00:42:56;24.05;;;14.35;;
4601;SDS011;2313;48.552;9.370;2023-03-01T00:45:22;22.00;;;13.17;;
4601;SDS011;2313;48.552;9.370;2023-03-01T00:47:49;22.50;;;14.40;;
4601;SDS011;2313;48.552;9.370;2023-03-01T00:50:15;23.77;;;13.50;;
4601;SDS011;2313;48.552;9.370;2023-03-01T00:52:41;25.13;;;14.20;;
4601;SDS011;2313;48.552;9.370;2023-03-01T00:55:07;18.20;;;12.50;;
4601;SDS011;2313;48.552;9.370;2023-03-01T00:57:33;18.83;;;12.35;;
4601;SDS011;2313;48.552;9.370;2023-03-01T00:59:59;20.80;;;12.93;;
4601;SDS011;2313;48.552;9.370;2023-03-01T01:02:25;26.00;;;12.87;;
4601;SDS011;2313;48.552;9.370;2023-03-01T01:04:50;18.80;;;12.00;;
4601;SDS011;2313;48.552;9.370;2023-03-01T01:07:16;23.23;;;13.70;;
4601;SDS011;2313;48.552;9.370;2023-03-01T01:09:42;22.85;;;12.13;;
4601;SDS011;2313;48.552;9.370;2023-03-01T01:12:08;19.03;;;12.00;;
4601;SDS011;2313;48.552;9.370;2023-03-01T01:14:34;20.57;;;13.10;;
4601;SDS011;2313;48.552;9.370;2023-03-01T01:17:00;21.70;;;12.60;;
4601;SDS011;2313;48.552;9.370;2023-03-01T01:19:26;22.30;;;13.63;;
4601;SDS011;2313;48.552;9.370;2023-03-01T01:21:52;23.63;;;14.50;;
4601;SDS011;2313;48.552;9.370;2023-03-01T01:24:18;20.17;;;12.37;;
4601;SDS011;2313;48.552;9.370;2023-03-01T01:26:44;20.48;;;12.23;;
4601;SDS011;2313;48.552;9.370;2023-03-01T01:29:10;20.35;;;12.95;;
4601;SDS011;2313;48.552;9.370;2023-03-01T01:31:37;19.75;;;12.13;;
4601;SDS011;2313;48.552;9.370;2023-03-01T01:34:04;33.05;;;12.93;;
4601;SDS011;2313;48.552;9.370;2023-03-01T01:36:31;21.25;;;12.40;;
4601;SDS011;2313;48.552;9.370;2023-03-01T01:38:57;23.60;;;15.17;;
4601;SDS011;2313;48.552;9.370;2023-03-01T01:41:23;27.25;;;16.95;;
4601;SDS011;2313;48.552;9.370;2023-03-01T01:47:14;23.13;;;15.30;;
4601;SDS011;2313;48.552;9.370;2023-03-01T01:49:49;27.90;;;16.10;;
4601;SDS011;2313;48.552;9.370;2023-03-01T01:55:11;27.48;;;15.77;;
4601;SDS011;2313;48.552;9.370;2023-03-01T01:57:44;24.38;;;14.75;;
4601;SDS011;2313;48.552;9.370;2023-03-01T02:00:19;25.90;;;14.63;;
4601;SDS011;2313;48.552;9.370;2023-03-01T02:02:47;22.00;;;14.63;;
4601;SDS011;2313;48.552;9.370;2023-03-01T02:07:54;29.67;;;15.02;;
4601;SDS011;2313;48.552;9.370;2023-03-01T02:10:22;25.75;;;15.50;;
4601;SDS011;2313;48.552;9.370;2023-03-01T02:12:49;23.92;;;14.63;;
4601;SDS011;2313;48.552;9.370;2023-03-01T02:15:15;22.90;;;14.70;;
4601;SDS011;2313;48.552;9.370;2023-03-01T02:17:41;31.57;;;15.33;;
4601;SDS011;2313;48.552;9.370;2023-03-01T02:20:11;23.37;;;13.53;;
4601;SDS011;2313;48.552;9.370;2023-03-01T02:22:45;26.02;;;15.40;;
4601;SDS011;2313;48.552;9.370;2023-03-01T02:25:26;23.58;;;14.93;;
4601;SDS011;2313;48.552;9.370;2023-03-01T02:28:01;27.83;;;14.23;;
4601;SDS011;2313;48.552;9.370;2023-03-01T02:30:36;22.80;;;13.25;;
4601;SDS011;2313;48.552;9.370;2023-03-01T02:33:22;27.92;;;13.52;;
4601;SDS011;2313;48.552;9.370;2023-03-01T02:35:47;24.90;;;13.80;;
4601;SDS011;2313;48.552;9.370;2023-03-01T02:38:13;35.37;;;13.20;;
4601;SDS011;2313;48.552;9.370;2023-03-01T02:40:39;20.90;;;12.37;;
4601;SDS011;2313;48.552;9.370;2023-03-01T02:43:07;24.73;;;14.48;;
4601;SDS011;2313;48.552;9.370;2023-03-01T02:45:35;22.55;;;13.80;;
4601;SDS011;2313;48.552;9.370;2023-03-01T02:48:00;24.27;;;13.60;;
4601;SDS011;2313;48.552;9.370;2023-03-01T02:53:05;24.48;;;14.00;;
4601;SDS011;2313;48.552;9.370;2023-03-01T02:55:36;21.00;;;13.25;;
4601;SDS011;2313;48.552;9.370;2023-03-01T02:58:02;22.07;;;13.20;;
4601;SDS011;2313;48.552;9.370;2023-03-01T03:00:29;25.80;;;13.55;;
4601;SDS011;2313;48.552;9.370;2023-03-01T03:02:59;24.15;;;14.93;;
4601;SDS011;2313;48.552;9.370;2023-03-01T03:05:29;20.20;;;12.70;;
4601;SDS011;2313;48.552;9.370;2023-03-01T03:07:55;21.52;;;13.32;;
4601;SDS011;2313;48.552;9.370;2023-03-01T03:10:23;20.65;;;12.43;;
4601;SDS011;2313;48.552;9.370;2023-03-01T03:12:50;24.83;;;14.30;;
4601;SDS011;2313;48.552;9.370;2023-03-01T03:15:20;22.20;;;13.95;;
4601;SDS011;2313;48.552;9.370;2023-03-01T03:17:47;19.90;;;13.45;;
4601;SDS011;2313;48.552;9.370;2023-03-01T03:20:14;22.98;;;14.07;;
4601;SDS011;2313;48.552;9.370;2023-03-01T03:22:44;22.58;;;14.20;;
4601;SDS011;2313;48.552;9.370;2023-03-01T03:25:11;23.58;;;15.25;;
4601;SDS011;2313;48.552;9.370;2023-03-01T03:27:37;26.07;;;15.93;;
4601;SDS011;2313;48.552;9.370;2023-03-01T03:30:04;21.23;;;14.18;;
4601;SDS011;2313;48.552;9.370;2023-03-01T03:32:34;25.08;;;15.10;;
4601;SDS011;2313;48.552;9.370;2023-03-01T03:35:01;22.60;;;13.77;;
4601;SDS011;2313;48.552;9.370;2023-03-01T03:37:27;22.27;;;14.18;;
4601;SDS011;2313;48.552;9.370;2023-03-01T03:40:11;21.75;;;14.10;;
4601;SDS011;2313;48.552;9.370;2023-03-01T03:42:40;22.23;;;15.00;;
4601;SDS011;2313;48.552;9.370;2023-03-01T03:45:06;32.70;;;14.53;;
4601;SDS011;2313;48.552;9.370;2023-03-01T03:47:32;23.73;;;14.27;;
4601;SDS011;2313;48.552;9.370;2023-03-01T03:49:57;25.90;;;14.73;;
4601;SDS011;2313;48.552;9.370;2023-03-01T03:52:23;24.53;;;15.03;;
4601;SDS011;2313;48.552;9.370;2023-03-01T03:54:49;21.37;;;14.20;;
4601;SDS011;2313;48.552;9.370;2023-03-01T03:57:14;25.80;;;15.10;;
4601;SDS011;2313;48.552;9.370;2023-03-01T03:59:40;20.80;;;14.30;;
4601;SDS011;2313;48.552;9.370;2023-03-01T04:02:05;35.03;;;14.93;;
4601;SDS011;2313;48.552;9.370;2023-03-01T04:04:33;23.23;;;14.10;;
4601;SDS011;2313;48.552;9.370;2023-03-01T04:06:59;23.53;;;15.17;;
4601;SDS011;2313;48.552;9.370;2023-03-01T04:09:24;25.70;;;15.60;;
4601;SDS011;2313;48.552;9.370;2023-03-01T04:11:50;27.77;;;14.73;;
4601;SDS011;2313;48.552;9.370;2023-03-01T04:14:15;23.60;;;15.30;;
4601;SDS011;2313;48.552;9.370;2023-03-01T04:16:41;31.00;;;14.83;;
4601;SDS011;2313;48.552;9.370;2023-03-01T04:19:07;25.97;;;14.40;;
4601;SDS011;2313;48.552;9.370;2023-03-01T04:21:34;26.65;;;16.27;;
4601;SDS011;2313;48.552;9.370;2023-03-01T04:24:01;26.65;;;14.95;;
4601;SDS011;2313;48.552;9.370;2023-03-01T04:26:28;24.98;;;14.85;;
4601;SDS011;2313;48.552;9.370;2023-03-01T04:28:54;21.10;;;14.37;;
4601;SDS011;2313;48.552;9.370;2023-03-01T04:31:20;25.63;;;15.17;;
4601;SDS011;2313;48.552;9.370;2023-03-01T04:36:14;24.67;;;15.35;;
4601;SDS011;2313;48.552;9.370;2023-03-01T04:38:41;28.30;;;16.70;;
4601;SDS011;2313;48.552;9.370;2023-03-01T04:41:07;31.33;;;16.92;;
4601;SDS011;2313;48.552;9.370;2023-03-01T04:43:36;25.20;;;15.43;;
4601;SDS011;2313;48.552;9.370;2023-03-01T04:46:09;22.95;;;14.60;;
4601;SDS011;2313;48.552;9.370;2023-03-01T04:48:37;23.92;;;15.07;;
4601;SDS011;2313;48.552;9.370;2023-03-01T04:51:04;26.08;;;16.13;;
4601;SDS011;2313;48.552;9.370;2023-03-01T04:53:30;23.63;;;15.50;;
4601;SDS011;2313;48.552;9.370;2023-03-01T04:55:57;22.90;;;15.15;;
4601;SDS011;2313;48.552;9.370;2023-03-01T04:58:23;23.93;;;15.10;;
4601;SDS011;2313;48.552;9.370;2023-03-01T05:00:51;22.83;;;14.45;;
4601;SDS011;2313;48.552;9.370;2023-03-01T05:03:17;26.35;;;15.52;;
4601;SDS011;2313;48.552;9.370;2023-03-01T05:05:43;23.00;;;14.53;;
4601;SDS011;2313;48.552;9.370;2023-03-01T05:08:10;23.80;;;15.35;;
4601;SDS011;2313;48.552;9.370;2023-03-01T05:10:42;24.25;;;14.23;;
4601;SDS011;2313;48.552;9.370;2023-03-01T05:13:17;27.42;;;15.90;;
4601;SDS011;2313;48.552;9.370;2023-03-01T05:15:48;23.20;;;14.80;;
4601;SDS011;2313;48.552;9.370;2023-03-01T05:18:18;26.85;;;15.40;;
4601;SDS011;2313;48.552;9.370;2023-03-01T05:20:44;22.47;;;14.90;;
4601;SDS011;2313;48.552;9.370;2023-03-01T05:23:09;22.80;;;15.30;;
4601;SDS011;2313;48.552;9.370;2023-03-01T05:25:35;30.60;;;16.40;;
4601;SDS011;2313;48.552;9.370;2023-03-01T05:28:05;22.73;;;13.95;;
4601;SDS011;2313;48.552;9.370;2023-03-01T05:30:32;26.38;;;15.23;;
4601;SDS011;2313;48.552;9.370;2023-03-01T05:32:59;27.17;;;15.57;;
4601;SDS011;2313;48.552;9.370;2023-03-01T05:35:25;24.95;;;15.65;;
4601;SDS011;2313;48.552;9.370;2023-03-01T05:37:51;30.97;;;15.67;;
4601;SDS011;2313;48.552;9.370;2023-03-01T05:40:18;29.63;;;17.37;;
4601;SDS011;2313;48.552;9.370;2023-03-01T05:42:50;32.10;;;16.50;;
4601;SDS011;2313;48.552;9.370;2023-03-01T05:45:19;31.25;;;16.23;;
4601;SDS011;2313;48.552;9.370;2023-03-01T05:47:45;26.85;;;15.68;;
4601;SDS011;2313;48.552;9.370;2023-03-01T05:50:16;27.45;;;14.95;;
4601;SDS011;2313;48.552;9.370;2023-03-01T05:52:44;24.30;;;16.00;;
4601;SDS011;2313;48.552;9.370;2023-03-01T05:55:11;23.40;;;15.23;;
4601;SDS011;2313;48.552;9.370;2023-03-01T05:57:36;27.87;;;17.67;;
4601;SDS011;2313;48.552;9.370;2023-03-01T06:00:02;22.53;;;15.00;;
4601;SDS011;2313;48.552;9.370;2023-03-01T06:02:28;24.97;;;16.10;;
4601;SDS011;2313;48.552;9.370;2023-03-01T06:04:54;28.50;;;16.70;;
4601;SDS011;2313;48.552;9.370;2023-03-01T06:07:20;29.33;;;16.40;;
4601;SDS011;2313;48.552;9.370;2023-03-01T06:09:46;24.10;;;15.63;;
4601;SDS011;2313;48.552;9.370;2023-03-01T06:12:11;27.90;;;16.20;;
4601;SDS011;2313;48.552;9.370;2023-03-01T06:14:37;30.00;;;16.90;;
4601;SDS011;2313;48.552;9.370;2023-03-01T06:17:02;29.57;;;15.87;;
4601;SDS011;2313;48.552;9.370;2023-03-01T06:19:28;25.30;;;15.90;;
4601;SDS011;2313;48.552;9.370;2023-03-01T06:21:54;24.40;;;16.57;;
4601;SDS011;2313;48.552;9.370;2023-03-01T06:24:19;35.30;;;19.30;;
4601;SDS011;2313;48.552;9.370;2023-03-01T06:26:45;26.93;;;16.53;;
4601;SDS011;2313;48.552;9.370;2023-03-01T06:29:10;29.00;;;16.90;;
4601;SDS011;2313;48.552;9.370;2023-03-01T06:31:36;30.07;;;17.97;;
4601;SDS011;2313;48.552;9.370;2023-03-01T06:34:02;34.80;;;19.53;;
4601;SDS011;2313;48.552;9.370;2023-03-01T06:36:27;33.57;;;18.63;;
4601;SDS011;2313;48.552;9.370;2023-03-01T06:38:53;32.67;;;18.50;;
4601;SDS011;2313;48.552;9.370;2023-03-01T06:41:19;34.57;;;18.23;;
4601;SDS011;2313;48.552;9.370;2023-03-01T06:43:44;26.73;;;16.73;;
4601;SDS011;2313;48.552;9.370;2023-03-01T06:46:10;26.63;;;16.87;;
4601;SDS011;2313;48.552;9.370;2023-03-01T06:48:35;29.10;;;17.83;;
4601;SDS011;2313;48.552;9.370;2023-03-01T06:51:01;29.10;;;17.50;;
4601;SDS011;2313;48.552;9.370;2023-03-01T06:53:27;27.13;;;16.17;;
4601;SDS011;2313;48.552;9.370;2023-03-01T06:55:54;31.23;;;16.52;;
4601;SDS011;2313;48.552;9.370;2023-03-01T06:58:20;33.58;;;17.52;;
4601;SDS011;2313;48.552;9.370;2023-03-01T07:00:46;34.20;;;20.67;;
4601;SDS011;2313;48.552;9.370;2023-03-01T07:03:11;34.83;;;21.37;;
4601;SDS011;2313;48.552;9.370;2023-03-01T07:05:37;35.10;;;19.47;;
4601;SDS011;2313;48.552;9.370;2023-03-01T07:08:02;34.23;;;21.77;;
4601;SDS011;2313;48.552;9.370;2023-03-01T07:10:28;29.37;;;17.83;;
4601;SDS011;2313;48.552;9.370;2023-03-01T07:12:54;33.40;;;18.80;;
4601;SDS011;2313;48.552;9.370;2023-03-01T07:15:21;31.60;;;18.90;;
4601;SDS011;2313;48.552;9.370;2023-03-01T07:17:47;32.77;;;18.80;;
4601;SDS011;2313;48.552;9.370;2023-03-01T07:20:14;37.45;;;19.85;;
4601;SDS011;2313;48.552;9.370;2023-03-01T07:22:40;33.53;;;19.00;;
4601;SDS011;2313;48.552;9.370;2023-03-01T07:25:09;38.58;;;20.88;;
4601;SDS011;2313;48.552;9.370;2023-03-01T07:27:36;34.47;;;19.55;;
4601;SDS011;2313;48.552;9.370;2023-03-01T07:30:02;29.87;;;18.43;;
4601;SDS011;2313;48.552;9.370;2023-03-01T07:32:28;29.57;;;20.60;;
4601;SDS011;2313;48.552;9.370;2023-03-01T07:34:54;29.00;;;18.73;;
4601;SDS011;2313;48.552;9.370;2023-03-01T07:37:19;31.10;;;19.37;;
4601;SDS011;2313;48.552;9.370;2023-03-01T07:39:45;33.23;;;20.30;;
4601;SDS011;2313;48.552;9.370;2023-03-01T07:42:10;38.10;;;22.33;;
4601;SDS011;2313;48.552;9.370;2023-03-01T07:44:36;30.70;;;19.20;;
4601;SDS011;2313;48.552;9.370;2023-03-01T07:47:02;29.37;;;20.07;;
4601;SDS011;2313;48.552;9.370;2023-03-01T07:49:29;25.40;;;17.65;;
4601;SDS011;2313;48.552;9.370;2023-03-01T07:51:54;35.33;;;19.60;;
4601;SDS011;2313;48.552;9.370;2023-03-01T07:54:21;30.73;;;18.50;;
4601;SDS011;2313;48.552;9.370;2023-03-01T07:56:46;27.90;;;18.40;;
4601;SDS011;2313;48.552;9.370;2023-03-01T07:59:12;31.67;;;18.27;;
4601;SDS011;2313;48.552;9.370;2023-03-01T08:01:38;43.17;;;23.47;;
4601;SDS011;2313;48.552;9.370;2023-03-01T08:04:03;31.87;;;18.13;;
4601;SDS011;2313;48.552;9.370;2023-03-01T08:06:33;40.00;;;22.60;;
4601;SDS011;2313;48.552;9.370;2023-03-01T08:08:59;39.58;;;25.88;;
4601;SDS011;2313;48.552;9.370;2023-03-01T08:11:25;40.40;;;22.77;;
4601;SDS011;2313;48.552;9.370;2023-03-01T08:13:53;35.40;;;20.88;;
4601;SDS011;2313;48.552;9.370;2023-03-01T08:16:18;35.17;;;21.40;;
4601;SDS011;2313;48.552;9.370;2023-03-01T08:18:44;34.57;;;21.07;;
4601;SDS011;2313;48.552;9.370;2023-03-01T08:21:11;41.10;;;24.20;;
4601;SDS011;2313;48.552;9.370;2023-03-01T08:23:39;30.90;;;19.77;;
4601;SDS011;2313;48.552;9.370;2023-03-01T08:26:18;26.00;;;17.60;;
4601;SDS011;2313;48.552;9.370;2023-03-01T08:28:45;26.38;;;17.52;;
4601;SDS011;2313;48.552;9.370;2023-03-01T08:31:13;32.78;;;18.70;;
4601;SDS011;2313;48.552;9.370;2023-03-01T08:33:47;28.77;;;18.92;;
4601;SDS011;2313;48.552;9.370;2023-03-01T08:36:16;29.63;;;19.13;;
4601;SDS011;2313;48.552;9.370;2023-03-01T08:38:43;29.02;;;18.35;;
4601;SDS011;2313;48.552;9.370;2023-03-01T08:41:09;30.07;;;19.17;;
4601;SDS011;2313;48.552;9.370;2023-03-01T08:43:34;28.80;;;17.70;;
4601;SDS011;2313;48.552;9.370;2023-03-01T08:46:00;27.23;;;18.13;;
4601;SDS011;2313;48.552;9.370;2023-03-01T08:48:27;31.43;;;19.40;;
4601;SDS011;2313;48.552;9.370;2023-03-01T08:50:53;28.48;;;18.33;;
4601;SDS011;2313;48.552;9.370;2023-03-01T08:53:19;30.13;;;18.37;;
4601;SDS011;2313;48.552;9.370;2023-03-01T08:55:44;27.13;;;17.50;;
4601;SDS011;2313;48.552;9.370;2023-03-01T08:58:10;28.83;;;19.07;;
4601;SDS011;2313;48.552;9.370;2023-03-01T09:00:35;30.80;;;18.60;;
4601;SDS011;2313;48.552;9.370;2023-03-01T09:03:01;29.67;;;17.73;;
4601;SDS011;2313;48.552;9.370;2023-03-01T09:05:27;32.30;;;18.77;;
4601;SDS011;2313;48.552;9.370;2023-03-01T09:07:53;24.60;;;17.03;;
4601;SDS011;2313;48.552;9.370;2023-03-01T09:10:18;25.60;;;18.20;;
4601;SDS011;2313;48.552;9.370;2023-03-01T09:12:44;28.43;;;18.50;;
4601;SDS011;2313;48.552;9.370;2023-03-01T09:15:09;28.90;;;17.77;;
4601;SDS011;2313;48.552;9.370;2023-03-01T09:17:35;25.40;;;18.43;;
4601;SDS011;2313;48.552;9.370;2023-03-01T09:20:01;27.00;;;17.40;;
4601;SDS011;2313;48.552;9.370;2023-03-01T09:22:30;31.53;;;19.00;;
4601;SDS011;2313;48.552;9.370;2023-03-01T09:24:57;25.70;;;17.83;;
4601;SDS011;2313;48.552;9.370;2023-03-01T09:27:24;26.83;;;17.40;;
4601;SDS011;2313;48.552;9.370;2023-03-01T09:29:50;34.47;;;20.50;;
4601;SDS011;2313;48.552;9.370;2023-03-01T09:32:15;27.00;;;18.30;;
4601;SDS011;2313;48.552;9.370;2023-03-01T09:34:41;25.60;;;18.47;;
4601;SDS011;2313;48.552;9.370;2023-03-01T09:37:26;24.97;;;17.70;;
4601;SDS011;2313;48.552;9.370;2023-03-01T09:39:51;27.17;;;19.70;;
4601;SDS011;2313;48.552;9.370;2023-03-01T09:42:17;30.03;;;19.10;;
4601;SDS011;2313;48.552;9.370;2023-03-01T09:49:50;25.50;;;18.17;;
4601;SDS011;2313;48.552;9.370;2023-03-01T09:54:52;26.57;;;19.30;;
4601;SDS011;2313;48.552;9.370;2023-03-01T09:57:20;25.27;;;18.13;;
4601;SDS011;2313;48.552;9.370;2023-03-01T09:59:59;27.87;;;17.97;;
4601;SDS011;2313;48.552;9.370;2023-03-01T10:02:35;23.90;;;17.47;;
4601;SDS011;2313;48.552;9.370;2023-03-01T10:07:46;26.80;;;18.03;;
4601;SDS011;2313;48.552;9.370;2023-03-01T10:10:28;23.67;;;17.90;;
4601;SDS011;2313;48.552;9.370;2023-03-01T10:12:58;23.87;;;18.03;;
4601;SDS011;2313;48.552;9.370;2023-03-01T10:15:48;24.53;;;17.33;;
4601;SDS011;2313;48.552;9.370;2023-03-01T10:18:22;22.53;;;16.83;;
4601;SDS011;2313;48.552;9.370;2023-03-01T10:20:59;20.77;;;16.00;;
4601;SDS011;2313;48.552;9.370;2023-03-01T10:23:27;22.63;;;17.00;;
4601;SDS011;2313;48.552;9.370;2023-03-01T10:31:04;26.10;;;16.60;;
4601;SDS011;2313;48.552;9.370;2023-03-01T10:33:37;24.80;;;17.37;;
4601;SDS011;2313;48.552;9.370;2023-03-01T10:36:04;25.93;;;17.23;;
4601;SDS011;2313;48.552;9.370;2023-03-01T10:38:31;24.20;;;16.73;;
4601;SDS011;2313;48.552;9.370;2023-03-01T10:41:19;21.97;;;16.67;;
4601;SDS011;2313;48.552;9.370;2023-03-01T10:49:06;21.70;;;16.30;;
4601;SDS011;2313;48.552;9.370;2023-03-01T10:51:40;21.70;;;16.40;;
4601;SDS011;2313;48.552;9.370;2023-03-01T10:54:29;29.63;;;17.87;;
4601;SDS011;2313;48.552;9.370;2023-03-01T10:56:57;22.90;;;16.87;;
4601;SDS011;2313;48.552;9.370;2023-03-01T10:59:29;23.67;;;15.60;;
4601;SDS011;2313;48.552;9.370;2023-03-01T11:15:41;25.80;;;17.70;;
4601;SDS011;2313;48.552;9.370;2023-03-01T11:18:21;22.40;;;16.87;;
4601;SDS011;2313;48.552;9.370;2023-03-01T11:20:47;22.17;;;16.47;;
4601;SDS011;2313;48.552;9.370;2023-03-01T11:23:16;22.40;;;16.13;;
4601;SDS011;2313;48.552;9.370;2023-03-01T11:25:43;24.47;;;17.30;;
4601;SDS011;2313;48.552;9.370;2023-03-01T11:28:14;23.57;;;17.73;;
4601;SDS011;2313;48.552;9.370;2023-03-01T11:31:24;19.90;;;14.97;;
4601;SDS011;2313;48.552;9.370;2023-03-01T11:33:49;22.20;;;14.67;;
4601;SDS011;2313;48.552;9.370;2023-03-01T11:36:31;19.47;;;15.00;;
4601;SDS011;2313;48.552;9.370;2023-03-01T11:42:00;23.30;;;15.40;;
4601;SDS011;2313;48.552;9.370;2023-03-01T11:44:32;19.30;;;14.43;;
4601;SDS011;2313;48.552;9.370;2023-03-01T11:52:59;20.47;;;14.90;;
4601;SDS011;2313;48.552;9.370;2023-03-01T12:09:09;21.13;;;14.67;;
4601;SDS011;2313;48.552;9.370;2023-03-01T12:17:42;21.23;;;14.97;;
4601;SDS011;2313;48.552;9.370;2023-03-01T12:26:13;26.20;;;18.17;;
4601;SDS011;2313;48.552;9.370;2023-03-01T12:37:14;19.00;;;14.73;;
4601;SDS011;2313;48.552;9.370;2023-03-01T12:45:31;24.20;;;15.90;;
4601;SDS011;2313;48.552;9.370;2023-03-01T12:50:54;21.77;;;15.90;;
4601;SDS011;2313;48.552;9.370;2023-03-01T12:53:32;21.03;;;14.60;;
4601;SDS011;2313;48.552;9.370;2023-03-01T12:56:05;21.07;;;15.53;;
4601;SDS011;2313;48.552;9.370;2023-03-01T13:02:02;20.60;;;14.57;;
4601;SDS011;2313;48.552;9.370;2023-03-01T13:17:57;21.67;;;15.37;;
4601;SDS011;2313;48.552;9.370;2023-03-01T13:23:08;20.93;;;14.50;;
4601;SDS011;2313;48.552;9.370;2023-03-01T13:28:47;21.37;;;14.50;;
4601;SDS011;2313;48.552;9.370;2023-03-01T13:36:10;36.23;;;20.50;;
4601;SDS011;2313;48.552;9.370;2023-03-01T13:39:00;47.10;;;26.83;;
4601;SDS011;2313;48.552;9.370;2023-03-01T13:46:49;23.70;;;16.23;;
4601;SDS011;2313;48.552;9.370;2023-03-01T13:49:18;24.50;;;16.50;;
4601;SDS011;2313;48.552;9.370;2023-03-01T13:51:46;26.90;;;15.87;;
4601;SDS011;2313;48.552;9.370;2023-03-01T13:54:14;33.27;;;16.70;;
4601;SDS011;2313;48.552;9.370;2023-03-01T13:56:41;20.87;;;15.00;;
4601;SDS011;2313;48.552;9.370;2023-03-01T13:59:16;20.40;;;14.93;;
4601;SDS011;2313;48.552;9.370;2023-03-01T14:01:43;26.77;;;15.37;;
4601;SDS011;2313;48.552;9.370;2023-03-01T14:09:45;24.70;;;16.40;;
4601;SDS011;2313;48.552;9.370;2023-03-01T14:15:17;23.77;;;16.20;;
4601;SDS011;2313;48.552;9.370;2023-03-01T14:18:00;26.30;;;15.70;;
4601;SDS011;2313;48.552;9.370;2023-03-01T14:20:44;22.27;;;14.23;;
4601;SDS011;2313;48.552;9.370;2023-03-01T14:23:25;24.23;;;15.70;;
4601;SDS011;2313;48.552;9.370;2023-03-01T14:25:53;20.37;;;15.20;;
4601;SDS011;2313;48.552;9.370;2023-03-01T14:28:24;26.20;;;14.37;;
4601;SDS011;2313;48.552;9.370;2023-03-01T14:30:59;22.33;;;14.80;;
4601;SDS011;2313;48.552;9.370;2023-03-01T14:33:35;24.50;;;14.53;;
4601;SDS011;2313;48.552;9.370;2023-03-01T14:36:05;22.23;;;15.40;;
4601;SDS011;2313;48.552;9.370;2023-03-01T14:38:42;21.73;;;15.40;;
4601;SDS011;2313;48.552;9.370;2023-03-01T14:41:16;21.23;;;15.10;;
4601;SDS011;2313;48.552;9.370;2023-03-01T14:43:44;21.97;;;14.37;;
4601;SDS011;2313;48.552;9.370;2023-03-01T14:46:19;28.50;;;16.00;;
4601;SDS011;2313;48.552;9.370;2023-03-01T14:48:52;21.40;;;16.00;;
4601;SDS011;2313;48.552;9.370;2023-03-01T14:51:21;24.20;;;15.60;;
4601;SDS011;2313;48.552;9.370;2023-03-01T14:53:47;22.40;;;15.93;;
4601;SDS011;2313;48.552;9.370;2023-03-01T14:56:15;24.87;;;17.57;;
4601;SDS011;2313;48.552;9.370;2023-03-01T14:58:42;28.80;;;17.43;;
4601;SDS011;2313;48.552;9.370;2023-03-01T15:01:13;23.53;;;16.20;;
4601;SDS011;2313;48.552;9.370;2023-03-01T15:03:42;21.90;;;16.90;;
4601;SDS011;2313;48.552;9.370;2023-03-01T15:06:10;27.00;;;17.80;;
4601;SDS011;2313;48.552;9.370;2023-03-01T15:08:39;25.70;;;17.30;;
4601;SDS011;2313;48.552;9.370;2023-03-01T15:13:39;22.97;;;16.47;;
4601;SDS011;2313;48.552;9.370;2023-03-01T15:19:01;25.63;;;16.50;;
4601;SDS011;2313;48.552;9.370;2023-03-01T15:21:35;28.97;;;16.77;;
4601;SDS011;2313;48.552;9.370;2023-03-01T15:26:45;26.57;;;16.73;;
4601;SDS011;2313;48.552;9.370;2023-03-01T15:29:19;23.33;;;15.63;;
4601;SDS011;2313;48.552;9.370;2023-03-01T15:31:58;24.03;;;17.23;;
4601;SDS011;2313;48.552;9.370;2023-03-01T15:34:24;21.73;;;15.43;;
4601;SDS011;2313;48.552;9.370;2023-03-01T15:36:53;24.27;;;16.03;;
4601;SDS011;2313;48.552;9.370;2023-03-01T15:39:25;21.20;;;14.53;;
4601;SDS011;2313;48.552;9.370;2023-03-01T15:41:58;24.43;;;15.80;;
4601;SDS011;2313;48.552;9.370;2023-03-01T15:44:29;21.93;;;14.97;;
4601;SDS011;2313;48.552;9.370;2023-03-01T15:46:59;25.43;;;15.37;;
4601;SDS011;2313;48.552;9.370;2023-03-01T15:53:04;22.87;;;15.27;;
4601;SDS011;2313;48.552;9.370;2023-03-01T15:55:17;28.73;;;14.97;;
4601;SDS011;2313;48.552;9.370;2023-03-01T15:57:44;20.87;;;14.40;;
4601;SDS011;2313;48.552;9.370;2023-03-01T16:00:14;23.60;;;15.70;;
4601;SDS011;2313;48.552;9.370;2023-03-01T16:02:40;27.90;;;14.77;;
4601;SDS011;2313;48.552;9.370;2023-03-01T16:05:24;23.63;;;15.60;;
4601;SDS011;2313;48.552;9.370;2023-03-01T16:07:52;26.60;;;15.00;;
4601;SDS011;2313;48.552;9.370;2023-03-01T16:10:18;23.53;;;15.07;;
4601;SDS011;2313;48.552;9.370;2023-03-01T16:12:44;23.47;;;14.47;;
4601;SDS011;2313;48.552;9.370;2023-03-01T16:15:16;25.33;;;16.20;;
4601;SDS011;2313;48.552;9.370;2023-03-01T16:17:44;19.47;;;13.77;;
4601;SDS011;2313;48.552;9.370;2023-03-01T16:20:10;26.23;;;16.10;;
4601;SDS011;2313;48.552;9.370;2023-03-01T16:22:35;25.93;;;16.70;;
4601;SDS011;2313;48.552;9.370;2023-03-01T16:25:01;31.87;;;16.83;;
4601;SDS011;2313;48.552;9.370;2023-03-01T16:27:27;23.17;;;15.30;;
4601;SDS011;2313;48.552;9.370;2023-03-01T16:29:53;27.87;;;16.50;;
4601;SDS011;2313;48.552;9.370;2023-03-01T16:32:19;40.30;;;19.97;;
4601;SDS011;2313;48.552;9.370;2023-03-01T16:34:44;30.20;;;19.53;;
4601;SDS011;2313;48.552;9.370;2023-03-01T16:37:14;33.23;;;19.40;;
4601;SDS011;2313;48.552;9.370;2023-03-01T16:39:40;30.80;;;19.87;;
4601;SDS011;2313;48.552;9.370;2023-03-01T16:42:05;30.50;;;18.53;;
4601;SDS011;2313;48.552;9.370;2023-03-01T16:44:31;25.60;;;17.10;;
4601;SDS011;2313;48.552;9.370;2023-03-01T16:46:56;27.20;;;17.00;;
4601;SDS011;2313;48.552;9.370;2023-03-01T16:49:22;25.70;;;16.87;;
4601;SDS011;2313;48.552;9.370;2023-03-01T16:51:48;30.40;;;18.87;;
4601;SDS011;2313;48.552;9.370;2023-03-01T16:54:13;28.80;;;17.20;;
4601;SDS011;2313;48.552;9.370;2023-03-01T16:56:39;26.50;;;15.63;;
4601;SDS011;2313;48.552;9.370;2023-03-01T16:59:05;27.90;;;16.93;;
4601;SDS011;2313;48.552;9.370;2023-03-01T17:01:31;24.80;;;15.40;;
4601;SDS011;2313;48.552;9.370;2023-03-01T17:04:04;35.80;;;16.87;;
4601;SDS011;2313;48.552;9.370;2023-03-01T17:06:30;28.77;;;17.70;;
4601;SDS011;2313;48.552;9.370;2023-03-01T17:08:57;29.20;;;17.07;;
4601;SDS011;2313;48.552;9.370;2023-03-01T17:11:23;34.30;;;18.63;;
4601;SDS011;2313;48.552;9.370;2023-03-01T17:13:49;37.57;;;20.87;;
4601;SDS011;2313;48.552;9.370;2023-03-01T17:16:16;37.97;;;20.27;;
4601;SDS011;2313;48.552;9.370;2023-03-01T17:18:44;31.33;;;19.20;;
4601;SDS011;2313;48.552;9.370;2023-03-01T17:21:10;27.53;;;17.17;;
4601;SDS011;2313;48.552;9.370;2023-03-01T17:23:37;35.63;;;18.63;;
4601;SDS011;2313;48.552;9.370;2023-03-01T17:26:05;34.93;;;19.10;;
4601;SDS011;2313;48.552;9.370;2023-03-01T17:28:35;34.50;;;19.33;;
4601;SDS011;2313;48.552;9.370;2023-03-01T17:31:02;38.20;;;21.30;;